HAZ2220 ZGHA-ZSHC
Flight info
| Callsign | HAZ2220 |
|---|---|
| Flight time | N/A |
| Altitude | 26600 |
| Route | PAT7X PATVO DCT P645 DCT TXN G204 OREXA OREXA91 |
| Aircraft | A319/M-SDE3FGHIRWY/LB1 |
Departure
| Time | 2026-04-15 11:31 |
|---|---|
| Airport | Changsha Huanghua International Airport (ZGHA) |
Arrival
| Time | N/A |
|---|---|
| Airport | Hangzhou Xiaoshan International Airport (ZSHC) |
| Time | Latitude | Longitude | Altitude | Speed | Heading |
|---|---|---|---|---|---|
| 2026-04-15 10:42 | 28.19039 | 113.21587 | 227 ft | 0 kts | 268° |
| 2026-04-15 11:16 | 28.19039 | 113.21604 | 227 ft | 2 kts | 268° |
| 2026-04-15 11:17 | 28.19039 | 113.21621 | 227 ft | 2 kts | 268° |
| 2026-04-15 11:17 | 28.19040 | 113.21637 | 227 ft | 1 kts | 268° |
| 2026-04-15 11:17 | 28.19040 | 113.21648 | 227 ft | 2 kts | 258° |
| 2026-04-15 11:17 | 28.19048 | 113.21662 | 227 ft | 2 kts | 219° |
| 2026-04-15 11:18 | 28.19061 | 113.21669 | 227 ft | 1 kts | 185° |
| 2026-04-15 11:18 | 28.19068 | 113.21669 | 227 ft | 1 kts | 171° |
| 2026-04-15 11:18 | 28.19072 | 113.21668 | 227 ft | 0 kts | 175° |
| 2026-04-15 11:19 | 28.19071 | 113.21668 | 227 ft | 0 kts | 175° |
| 2026-04-15 11:23 | 28.19064 | 113.21669 | 227 ft | 1 kts | 175° |
| 2026-04-15 11:23 | 28.19041 | 113.21671 | 227 ft | 5 kts | 175° |
| 2026-04-15 11:24 | 28.18992 | 113.21676 | 227 ft | 8 kts | 177° |
| 2026-04-15 11:24 | 28.18918 | 113.21687 | 227 ft | 11 kts | 155° |
| 2026-04-15 11:24 | 28.18879 | 113.21773 | 227 ft | 11 kts | 123° |
| 2026-04-15 11:24 | 28.18822 | 113.21788 | 227 ft | 10 kts | 158° |
| 2026-04-15 11:25 | 28.18738 | 113.21802 | 227 ft | 13 kts | 178° |
| 2026-04-15 11:25 | 28.18634 | 113.21808 | 227 ft | 16 kts | 176° |
| 2026-04-15 11:25 | 28.18509 | 113.21817 | 227 ft | 19 kts | 176° |
| 2026-04-15 11:25 | 28.18368 | 113.21825 | 227 ft | 21 kts | 177° |
| 2026-04-15 11:26 | 28.18212 | 113.21833 | 227 ft | 23 kts | 177° |
| 2026-04-15 11:26 | 28.18046 | 113.21843 | 227 ft | 24 kts | 176° |
| 2026-04-15 11:26 | 28.17869 | 113.21856 | 227 ft | 25 kts | 174° |
| 2026-04-15 11:26 | 28.17752 | 113.21919 | 227 ft | 14 kts | 116° |
| 2026-04-15 11:27 | 28.17748 | 113.21936 | 227 ft | 0 kts | 103° |
| 2026-04-15 11:27 | 28.17747 | 113.21941 | 227 ft | 1 kts | 99° |
| 2026-04-15 11:28 | 28.17745 | 113.21965 | 227 ft | 4 kts | 92° |
| 2026-04-15 11:28 | 28.17752 | 113.22010 | 227 ft | 6 kts | 62° |
| 2026-04-15 11:28 | 28.17800 | 113.22041 | 227 ft | 8 kts | 3° |
| 2026-04-15 11:28 | 28.17810 | 113.22041 | 227 ft | 3 kts | 5° |
| 2026-04-15 11:29 | 28.17845 | 113.22041 | 227 ft | 6 kts | 3° |
| 2026-04-15 11:29 | 28.17870 | 113.22039 | 227 ft | 0 kts | 354° |
| 2026-04-15 11:30 | 28.17885 | 113.22038 | 227 ft | 14 kts | 354° |
| 2026-04-15 11:30 | 28.18262 | 113.22012 | 227 ft | 92 kts | 356° |
| 2026-04-15 11:30 | 28.19134 | 113.21950 | 229 ft | 155 kts | 355° |
| 2026-04-15 11:31 | 28.20228 | 113.21856 | 869 ft | 157 kts | 356° |
| 2026-04-15 11:31 | 28.21314 | 113.21797 | 1553 ft | 158 kts | 357° |
| 2026-04-15 11:31 | 28.22406 | 113.21752 | 2185 ft | 162 kts | 357° |
| 2026-04-15 11:31 | 28.23592 | 113.21694 | 2684 ft | 177 kts | 357° |
| 2026-04-15 11:32 | 28.24873 | 113.21621 | 3139 ft | 193 kts | 357° |
| 2026-04-15 11:32 | 28.26282 | 113.21535 | 3520 ft | 214 kts | 357° |
| 2026-04-15 11:32 | 28.27792 | 113.21456 | 4190 ft | 221 kts | 356° |
| 2026-04-15 11:32 | 28.29339 | 113.21352 | 4918 ft | 225 kts | 356° |
| 2026-04-15 11:33 | 28.30895 | 113.21250 | 5630 ft | 228 kts | 357° |
| 2026-04-15 11:33 | 28.32502 | 113.21149 | 6280 ft | 232 kts | 358° |
| 2026-04-15 11:33 | 28.34124 | 113.21048 | 6873 ft | 237 kts | 358° |
| 2026-04-15 11:33 | 28.35786 | 113.20963 | 7449 ft | 240 kts | 3° |
| 2026-04-15 11:34 | 28.37365 | 113.21451 | 7964 ft | 241 kts | 36° |
| 2026-04-15 11:34 | 28.38483 | 113.22841 | 8437 ft | 242 kts | 67° |
| 2026-04-15 11:34 | 28.38859 | 113.24692 | 8908 ft | 244 kts | 90° |
| 2026-04-15 11:34 | 28.38910 | 113.26630 | 9363 ft | 248 kts | 90° |
| 2026-04-15 11:35 | 28.38963 | 113.28599 | 9772 ft | 253 kts | 89° |
| 2026-04-15 11:35 | 28.39037 | 113.30594 | 10182 ft | 259 kts | 89° |
| 2026-04-15 11:35 | 28.39126 | 113.32661 | 10614 ft | 263 kts | 88° |
| 2026-04-15 11:35 | 28.39225 | 113.34744 | 11036 ft | 267 kts | 88° |
| 2026-04-15 11:36 | 28.39327 | 113.36841 | 11425 ft | 271 kts | 88° |
| 2026-04-15 11:36 | 28.39430 | 113.39008 | 11814 ft | 277 kts | 88° |
| 2026-04-15 11:36 | 28.39533 | 113.41177 | 12211 ft | 279 kts | 88° |
| 2026-04-15 11:36 | 28.39629 | 113.43411 | 12575 ft | 284 kts | 92° |
| 2026-04-15 11:37 | 28.39211 | 113.45555 | 12910 ft | 281 kts | 124° |
| 2026-04-15 11:37 | 28.37942 | 113.47149 | 13241 ft | 271 kts | 155° |
| 2026-04-15 11:37 | 28.36202 | 113.47858 | 13466 ft | 263 kts | 182° |
| 2026-04-15 11:37 | 28.34359 | 113.47928 | 13695 ft | 269 kts | 186° |
| 2026-04-15 11:38 | 28.32451 | 113.47969 | 13907 ft | 279 kts | 185° |
| 2026-04-15 11:38 | 28.30481 | 113.48037 | 14107 ft | 288 kts | 185° |
| 2026-04-15 11:38 | 28.28442 | 113.48129 | 14285 ft | 296 kts | 184° |
| 2026-04-15 11:38 | 28.26340 | 113.48241 | 14461 ft | 303 kts | 184° |
| 2026-04-15 11:39 | 28.24222 | 113.48357 | 14625 ft | 311 kts | 183° |
| 2026-04-15 11:39 | 28.22011 | 113.48486 | 14783 ft | 318 kts | 183° |
| 2026-04-15 11:39 | 28.19767 | 113.48618 | 14926 ft | 326 kts | 183° |
| 2026-04-15 11:39 | 28.17486 | 113.48753 | 15060 ft | 333 kts | 182° |
| 2026-04-15 11:40 | 28.15135 | 113.49016 | 15167 ft | 346 kts | 171° |
| 2026-04-15 11:40 | 28.12927 | 113.50270 | 15270 ft | 368 kts | 146° |
| 2026-04-15 11:40 | 28.11205 | 113.52473 | 15458 ft | 382 kts | 125° |
| 2026-04-15 11:40 | 28.10050 | 113.55205 | 15664 ft | 384 kts | 116° |
| 2026-04-15 11:41 | 28.09022 | 113.57996 | 15822 ft | 388 kts | 116° |
| 2026-04-15 11:41 | 28.07956 | 113.60818 | 16010 ft | 389 kts | 117° |
| 2026-04-15 11:41 | 28.06859 | 113.63604 | 16212 ft | 390 kts | 118° |
| 2026-04-15 11:41 | 28.05743 | 113.66373 | 16385 ft | 390 kts | 119° |
| 2026-04-15 11:42 | 28.04789 | 113.69283 | 16531 ft | 396 kts | 107° |
| 2026-04-15 11:42 | 28.04427 | 113.72386 | 16692 ft | 401 kts | 93° |
| 2026-04-15 11:42 | 28.04641 | 113.75516 | 16856 ft | 404 kts | 84° |
| 2026-04-15 11:42 | 28.05053 | 113.78683 | 17013 ft | 406 kts | 83° |
| 2026-04-15 11:43 | 28.05492 | 113.81845 | 17169 ft | 407 kts | 83° |
| 2026-04-15 11:43 | 28.05915 | 113.84978 | 17323 ft | 408 kts | 83° |
| 2026-04-15 11:43 | 28.06328 | 113.88158 | 17478 ft | 409 kts | 83° |
| 2026-04-15 11:43 | 28.06731 | 113.91354 | 17632 ft | 410 kts | 83° |
| 2026-04-15 11:44 | 28.07126 | 113.94550 | 17776 ft | 410 kts | 84° |
| 2026-04-15 11:44 | 28.07515 | 113.97736 | 17911 ft | 411 kts | 84° |
| 2026-04-15 11:44 | 28.07906 | 114.00958 | 18044 ft | 411 kts | 84° |
| 2026-04-15 11:44 | 28.08294 | 114.04160 | 18162 ft | 413 kts | 84° |
| 2026-04-15 11:45 | 28.08683 | 114.07369 | 18288 ft | 414 kts | 84° |
| 2026-04-15 11:45 | 28.09075 | 114.10618 | 18417 ft | 416 kts | 84° |
| 2026-04-15 11:45 | 28.09464 | 114.13843 | 18536 ft | 417 kts | 84° |
| 2026-04-15 11:45 | 28.09854 | 114.17081 | 18646 ft | 417 kts | 84° |
| 2026-04-15 11:46 | 28.10243 | 114.20319 | 18747 ft | 419 kts | 84° |
| 2026-04-15 11:46 | 28.10635 | 114.23601 | 18857 ft | 420 kts | 84° |
| 2026-04-15 11:46 | 28.11023 | 114.26861 | 18969 ft | 420 kts | 84° |
| 2026-04-15 11:46 | 28.11417 | 114.30160 | 19063 ft | 422 kts | 84° |
| 2026-04-15 11:47 | 28.11860 | 114.33404 | 19142 ft | 420 kts | 81° |
| 2026-04-15 11:47 | 28.12484 | 114.36648 | 19205 ft | 424 kts | 76° |
| 2026-04-15 11:47 | 28.13269 | 114.39882 | 19295 ft | 425 kts | 75° |
| 2026-04-15 11:47 | 28.14089 | 114.43104 | 19394 ft | 426 kts | 74° |
| 2026-04-15 11:48 | 28.14905 | 114.46285 | 19496 ft | 425 kts | 74° |
| 2026-04-15 11:48 | 28.15729 | 114.49515 | 19571 ft | 427 kts | 74° |
| 2026-04-15 11:48 | 28.16553 | 114.52765 | 19665 ft | 429 kts | 74° |
| 2026-04-15 11:48 | 28.17367 | 114.55988 | 19770 ft | 429 kts | 74° |
| 2026-04-15 11:49 | 28.18184 | 114.59237 | 19873 ft | 430 kts | 74° |